N179LJ SKRG-MROC
Flight info
| Callsign | N179LJ |
|---|---|
| Flight time | 1h 30m |
| Altitude | 34000 |
| Route | TBG DCT ISEBA CUARE3I |
| Aircraft | B738/M-SDE2E3FGHIRWXY/LB1 |
Departure
| Time | 2026-05-04 17:00 |
|---|---|
| Airport | Jose Maria Córdova International Airport (SKRG) |
Arrival
| Time | 2026-05-04 18:31 |
|---|---|
| Airport | Juan Santamaría International Airport (MROC) |
| Time | Latitude | Longitude | Altitude | Speed | Heading |
|---|---|---|---|---|---|
| 2026-05-04 16:46 | 6.17096 | -75.42674 | 6993 ft | 0 kts | 277° |
| 2026-05-04 16:53 | 6.17101 | -75.42652 | 6991 ft | 2 kts | 246° |
| 2026-05-04 16:53 | 6.17085 | -75.42624 | 6989 ft | 2 kts | 340° |
| 2026-05-04 16:54 | 6.17070 | -75.42621 | 6989 ft | 2 kts | 8° |
| 2026-05-04 16:55 | 6.17050 | -75.42629 | 6989 ft | 0 kts | 33° |
| 2026-05-04 16:56 | 6.17055 | -75.42626 | 6989 ft | 2 kts | 29° |
| 2026-05-04 16:56 | 6.17257 | -75.42620 | 6991 ft | 14 kts | 359° |
| 2026-05-04 16:57 | 6.17345 | -75.42619 | 6992 ft | 11 kts | 6° |
| 2026-05-04 16:57 | 6.17480 | -75.42548 | 6992 ft | 14 kts | 32° |
| 2026-05-04 16:58 | 6.17827 | -75.42491 | 6996 ft | 18 kts | 359° |
| 2026-05-04 16:58 | 6.17951 | -75.42492 | 6999 ft | 11 kts | 0° |
| 2026-05-04 16:59 | 6.18005 | -75.42338 | 6994 ft | 19 kts | 137° |
| 2026-05-04 17:00 | 6.15697 | -75.42306 | 6959 ft | 183 kts | 179° |
| 2026-05-04 17:00 | 6.11791 | -75.43169 | 8294 ft | 217 kts | 236° |
| 2026-05-04 17:01 | 6.11867 | -75.46246 | 8981 ft | 247 kts | 298° |
| 2026-05-04 17:01 | 6.14148 | -75.49111 | 9698 ft | 278 kts | 309° |
| 2026-05-04 17:02 | 6.16471 | -75.52457 | 10516 ft | 307 kts | 303° |
| 2026-05-04 17:02 | 6.18924 | -75.56248 | 11305 ft | 336 kts | 304° |
| 2026-05-04 17:03 | 6.20213 | -75.58219 | 11652 ft | 350 kts | 304° |
| 2026-05-04 17:03 | 6.21594 | -75.60323 | 12006 ft | 365 kts | 304° |
| 2026-05-04 17:03 | 6.24453 | -75.64657 | 13133 ft | 377 kts | 304° |
| 2026-05-04 17:04 | 6.27377 | -75.69105 | 14448 ft | 383 kts | 304° |
| 2026-05-04 17:04 | 6.30344 | -75.73617 | 15713 ft | 391 kts | 305° |
| 2026-05-04 17:05 | 6.33353 | -75.78195 | 16929 ft | 399 kts | 305° |
| 2026-05-04 17:05 | 6.36418 | -75.82861 | 18134 ft | 406 kts | 305° |
| 2026-05-04 17:06 | 6.39559 | -75.87646 | 19373 ft | 411 kts | 305° |
| 2026-05-04 17:06 | 6.41124 | -75.90030 | 19979 ft | 413 kts | 305° |
| 2026-05-04 17:07 | 6.44313 | -75.94878 | 21085 ft | 420 kts | 305° |
| 2026-05-04 17:07 | 6.45376 | -75.96496 | 21469 ft | 421 kts | 305° |
| 2026-05-04 17:07 | 6.47537 | -75.99784 | 22191 ft | 425 kts | 305° |
| 2026-05-04 17:07 | 6.49164 | -76.02262 | 22736 ft | 427 kts | 305° |
| 2026-05-04 17:08 | 6.50800 | -76.04755 | 23253 ft | 430 kts | 305° |
| 2026-05-04 17:08 | 6.54137 | -76.09840 | 24233 ft | 436 kts | 304° |
| 2026-05-04 17:08 | 6.55792 | -76.12363 | 24714 ft | 439 kts | 304° |
| 2026-05-04 17:09 | 6.57497 | -76.14963 | 25186 ft | 442 kts | 304° |
| 2026-05-04 17:09 | 6.59184 | -76.17532 | 25634 ft | 445 kts | 304° |
| 2026-05-04 17:09 | 6.60885 | -76.20125 | 26052 ft | 448 kts | 304° |
| 2026-05-04 17:10 | 6.64346 | -76.25400 | 26907 ft | 454 kts | 304° |
| 2026-05-04 17:10 | 6.69604 | -76.33417 | 28144 ft | 462 kts | 304° |
| 2026-05-04 17:11 | 6.71378 | -76.36122 | 28535 ft | 465 kts | 304° |
| 2026-05-04 17:11 | 6.73171 | -76.38857 | 28923 ft | 467 kts | 304° |
| 2026-05-04 17:11 | 6.76725 | -76.44280 | 29869 ft | 467 kts | 304° |
| 2026-05-04 17:12 | 6.78511 | -76.47010 | 30384 ft | 466 kts | 303° |
| 2026-05-04 17:12 | 6.82051 | -76.52425 | 31348 ft | 464 kts | 303° |
| 2026-05-04 17:13 | 6.87358 | -76.60546 | 32801 ft | 459 kts | 303° |
| 2026-05-04 17:14 | 6.92561 | -76.68495 | 33979 ft | 456 kts | 303° |
| 2026-05-04 17:14 | 6.94301 | -76.71156 | 33975 ft | 456 kts | 303° |
| 2026-05-04 17:15 | 6.99515 | -76.79136 | 33920 ft | 454 kts | 303° |
| 2026-05-04 17:16 | 7.06436 | -76.89733 | 33913 ft | 454 kts | 303° |
| 2026-05-04 17:17 | 7.13356 | -77.00334 | 33888 ft | 451 kts | 303° |
| 2026-05-04 17:18 | 7.20274 | -77.10941 | 33887 ft | 453 kts | 303° |
| 2026-05-04 17:19 | 7.27243 | -77.21632 | 34569 ft | 460 kts | 303° |
| 2026-05-04 17:19 | 7.30733 | -77.26986 | 35398 ft | 457 kts | 303° |
| 2026-05-04 17:20 | 7.34237 | -77.32365 | 35893 ft | 460 kts | 303° |
| 2026-05-04 17:20 | 7.39485 | -77.40423 | 35909 ft | 455 kts | 303° |
| 2026-05-04 17:21 | 7.46453 | -77.51129 | 35921 ft | 457 kts | 303° |
| 2026-05-04 17:22 | 7.49953 | -77.56511 | 35921 ft | 457 kts | 303° |
| 2026-05-04 17:23 | 7.56883 | -77.67168 | 35931 ft | 456 kts | 303° |
| 2026-05-04 17:24 | 7.62106 | -77.75204 | 35957 ft | 456 kts | 303° |
| 2026-05-04 17:25 | 7.69050 | -77.85895 | 35955 ft | 456 kts | 303° |
| 2026-05-04 17:26 | 7.76030 | -77.96655 | 35935 ft | 456 kts | 303° |
| 2026-05-04 17:27 | 7.84717 | -78.10055 | 35925 ft | 456 kts | 303° |
| 2026-05-04 17:28 | 7.91654 | -78.20767 | 35915 ft | 456 kts | 303° |
| 2026-05-04 17:29 | 8.02090 | -78.36893 | 35870 ft | 456 kts | 303° |
| 2026-05-04 17:31 | 8.10738 | -78.50269 | 35863 ft | 456 kts | 303° |
| 2026-05-04 17:32 | 8.19406 | -78.63692 | 35861 ft | 456 kts | 303° |
| 2026-05-04 17:33 | 8.26335 | -78.74429 | 35860 ft | 455 kts | 302° |
| 2026-05-04 17:34 | 8.33244 | -78.85143 | 35858 ft | 455 kts | 303° |
| 2026-05-04 17:35 | 8.41867 | -78.98524 | 35857 ft | 454 kts | 303° |
| 2026-05-04 17:36 | 8.45310 | -79.03872 | 35856 ft | 454 kts | 303° |
| 2026-05-04 17:36 | 8.48766 | -79.09242 | 35863 ft | 454 kts | 302° |
| 2026-05-04 17:37 | 8.52209 | -79.14592 | 35867 ft | 454 kts | 302° |
| 2026-05-04 17:37 | 8.55655 | -79.19950 | 35871 ft | 455 kts | 302° |
| 2026-05-04 17:38 | 8.59103 | -79.25314 | 35875 ft | 455 kts | 303° |
| 2026-05-04 17:38 | 8.62565 | -79.30700 | 35876 ft | 455 kts | 303° |
| 2026-05-04 17:39 | 8.67733 | -79.38744 | 35877 ft | 454 kts | 303° |
| 2026-05-04 17:39 | 8.71173 | -79.44105 | 35880 ft | 454 kts | 303° |
| 2026-05-04 17:40 | 8.74609 | -79.49458 | 35890 ft | 455 kts | 303° |
| 2026-05-04 17:40 | 8.77875 | -79.54951 | 35891 ft | 454 kts | 294° |
| 2026-05-04 17:41 | 8.79939 | -79.60974 | 35894 ft | 455 kts | 284° |
| 2026-05-04 17:41 | 8.81455 | -79.67178 | 35894 ft | 454 kts | 282° |
| 2026-05-04 17:42 | 8.82860 | -79.73415 | 35894 ft | 454 kts | 282° |
| 2026-05-04 17:42 | 8.84258 | -79.79614 | 35894 ft | 454 kts | 282° |
| 2026-05-04 17:43 | 8.85683 | -79.85855 | 35898 ft | 454 kts | 282° |
| 2026-05-04 17:43 | 8.87118 | -79.92084 | 35903 ft | 453 kts | 282° |
| 2026-05-04 17:44 | 8.88553 | -79.98292 | 35902 ft | 454 kts | 283° |
| 2026-05-04 17:44 | 8.89995 | -80.04517 | 35905 ft | 454 kts | 283° |
| 2026-05-04 17:45 | 8.91429 | -80.10713 | 35906 ft | 453 kts | 283° |
| 2026-05-04 17:45 | 8.92857 | -80.16885 | 35910 ft | 452 kts | 283° |
| 2026-05-04 17:46 | 8.94283 | -80.23061 | 35908 ft | 453 kts | 283° |
| 2026-05-04 17:46 | 8.95720 | -80.29290 | 35909 ft | 453 kts | 283° |
| 2026-05-04 17:47 | 8.97147 | -80.35481 | 35910 ft | 453 kts | 283° |
| 2026-05-04 17:47 | 8.98579 | -80.41702 | 35915 ft | 453 kts | 283° |
| 2026-05-04 17:48 | 8.99997 | -80.47869 | 35917 ft | 453 kts | 283° |
| 2026-05-04 17:48 | 9.01430 | -80.54099 | 35916 ft | 452 kts | 283° |
| 2026-05-04 17:49 | 9.02846 | -80.60259 | 35912 ft | 451 kts | 283° |
| 2026-05-04 17:49 | 9.04275 | -80.66482 | 35906 ft | 451 kts | 283° |
| 2026-05-04 17:50 | 9.05690 | -80.72641 | 35902 ft | 451 kts | 283° |
| 2026-05-04 17:50 | 9.07110 | -80.78835 | 35897 ft | 452 kts | 283° |
| 2026-05-04 17:51 | 9.08529 | -80.85032 | 35901 ft | 451 kts | 283° |
| 2026-05-04 17:51 | 9.09941 | -80.91199 | 35901 ft | 450 kts | 283° |
| 2026-05-04 17:52 | 9.11358 | -80.97394 | 35900 ft | 450 kts | 283° |
| 2026-05-04 17:52 | 9.12758 | -81.03522 | 35902 ft | 449 kts | 283° |
| 2026-05-04 17:53 | 9.14161 | -81.09666 | 35895 ft | 451 kts | 283° |
| 2026-05-04 17:53 | 9.15576 | -81.15867 | 35886 ft | 452 kts | 283° |
| 2026-05-04 17:54 | 9.16990 | -81.22072 | 35892 ft | 451 kts | 283° |
| 2026-05-04 17:54 | 9.18394 | -81.28236 | 35901 ft | 452 kts | 283° |
| 2026-05-04 17:55 | 9.19805 | -81.34432 | 35904 ft | 450 kts | 283° |
| 2026-05-04 17:55 | 9.21212 | -81.40617 | 35907 ft | 450 kts | 283° |
| 2026-05-04 17:56 | 9.22619 | -81.46810 | 35907 ft | 452 kts | 283° |
| 2026-05-04 17:56 | 9.24022 | -81.52990 | 35907 ft | 452 kts | 283° |
| 2026-05-04 17:57 | 9.25424 | -81.59169 | 35908 ft | 453 kts | 283° |
| 2026-05-04 17:57 | 9.26832 | -81.65381 | 35908 ft | 452 kts | 283° |
| 2026-05-04 17:58 | 9.28237 | -81.71584 | 35907 ft | 452 kts | 283° |
| 2026-05-04 17:58 | 9.29641 | -81.77786 | 35905 ft | 453 kts | 283° |
| 2026-05-04 17:59 | 9.31038 | -81.83967 | 35904 ft | 452 kts | 283° |
| 2026-05-04 18:00 | 9.33143 | -81.93287 | 35905 ft | 452 kts | 283° |
| 2026-05-04 18:00 | 9.34539 | -81.99475 | 35904 ft | 452 kts | 283° |
| 2026-05-04 18:01 | 9.35943 | -82.05705 | 35906 ft | 452 kts | 283° |
| 2026-05-04 18:01 | 9.37346 | -82.11930 | 35908 ft | 453 kts | 283° |
| 2026-05-04 18:02 | 9.39447 | -82.21263 | 35914 ft | 451 kts | 283° |
| 2026-05-04 18:02 | 9.40830 | -82.27415 | 35915 ft | 451 kts | 283° |
| 2026-05-04 18:03 | 9.42218 | -82.33594 | 35926 ft | 451 kts | 283° |
| 2026-05-04 18:03 | 9.43613 | -82.39814 | 35929 ft | 451 kts | 283° |
| 2026-05-04 18:04 | 9.44998 | -82.45996 | 35933 ft | 451 kts | 283° |
| 2026-05-04 18:05 | 9.47073 | -82.55264 | 35953 ft | 450 kts | 283° |
| 2026-05-04 18:05 | 9.48456 | -82.61446 | 35985 ft | 450 kts | 283° |
| 2026-05-04 18:06 | 9.50521 | -82.70690 | 36031 ft | 450 kts | 282° |
| 2026-05-04 18:06 | 9.51897 | -82.76856 | 36049 ft | 450 kts | 282° |
| 2026-05-04 18:07 | 9.53274 | -82.83029 | 36025 ft | 450 kts | 282° |
| 2026-05-04 18:07 | 9.54664 | -82.89186 | 35989 ft | 450 kts | 283° |
| 2026-05-04 18:08 | 9.56205 | -82.95330 | 35968 ft | 451 kts | 284° |
| 2026-05-04 18:08 | 9.57787 | -83.01395 | 35951 ft | 452 kts | 284° |
| 2026-05-04 18:09 | 9.61006 | -83.13680 | 36074 ft | 450 kts | 287° |
| 2026-05-04 18:10 | 9.63020 | -83.19692 | 36133 ft | 450 kts | 290° |
| 2026-05-04 18:10 | 9.65212 | -83.25656 | 36187 ft | 449 kts | 290° |
| 2026-05-04 18:11 | 9.67397 | -83.31604 | 36205 ft | 450 kts | 290° |
| 2026-05-04 18:11 | 9.69549 | -83.37546 | 36158 ft | 448 kts | 290° |
| 2026-05-04 18:12 | 9.70616 | -83.40522 | 35750 ft | 454 kts | 290° |
| 2026-05-04 18:12 | 9.71687 | -83.43520 | 35031 ft | 453 kts | 290° |
| 2026-05-04 18:12 | 9.72748 | -83.46500 | 34304 ft | 449 kts | 289° |
| 2026-05-04 18:12 | 9.73780 | -83.49465 | 33581 ft | 448 kts | 287° |
| 2026-05-04 18:13 | 9.74600 | -83.52548 | 32853 ft | 450 kts | 281° |
| 2026-05-04 18:13 | 9.75072 | -83.55641 | 32198 ft | 453 kts | 275° |
| 2026-05-04 18:13 | 9.75054 | -83.62046 | 30839 ft | 456 kts | 265° |
| 2026-05-04 18:14 | 9.74752 | -83.65231 | 30162 ft | 456 kts | 264° |
| 2026-05-04 18:14 | 9.74407 | -83.68389 | 29491 ft | 457 kts | 263° |
| 2026-05-04 18:14 | 9.74057 | -83.71601 | 28812 ft | 459 kts | 264° |
| 2026-05-04 18:15 | 9.73432 | -83.78050 | 27436 ft | 460 kts | 265° |
| 2026-05-04 18:15 | 9.72948 | -83.83849 | 26086 ft | 458 kts | 265° |
| 2026-05-04 18:15 | 9.72733 | -83.86597 | 25448 ft | 459 kts | 266° |
| 2026-05-04 18:16 | 9.72482 | -83.89811 | 24705 ft | 458 kts | 266° |
| 2026-05-04 18:16 | 9.72231 | -83.93011 | 23962 ft | 453 kts | 266° |
| 2026-05-04 18:16 | 9.71986 | -83.96152 | 23231 ft | 446 kts | 266° |
| 2026-05-04 18:17 | 9.71472 | -84.02316 | 21786 ft | 433 kts | 265° |
| 2026-05-04 18:17 | 9.71161 | -84.05326 | 21082 ft | 430 kts | 264° |
| 2026-05-04 18:17 | 9.70427 | -84.11304 | 19675 ft | 426 kts | 263° |
| 2026-05-04 18:18 | 9.70021 | -84.14259 | 18965 ft | 422 kts | 262° |
| 2026-05-04 18:18 | 9.69607 | -84.17166 | 18264 ft | 419 kts | 263° |
| 2026-05-04 18:18 | 9.69280 | -84.20110 | 17547 ft | 415 kts | 265° |
| 2026-05-04 18:18 | 9.69029 | -84.22975 | 16849 ft | 412 kts | 266° |
| 2026-05-04 18:19 | 9.68574 | -84.28749 | 15449 ft | 409 kts | 266° |
| 2026-05-04 18:19 | 9.68359 | -84.31621 | 14756 ft | 407 kts | 266° |
| 2026-05-04 18:19 | 9.68153 | -84.34435 | 14031 ft | 404 kts | 266° |
| 2026-05-04 18:20 | 9.68015 | -84.37231 | 13343 ft | 403 kts | 273° |
| 2026-05-04 18:20 | 9.68527 | -84.39984 | 12652 ft | 396 kts | 291° |
| 2026-05-04 18:20 | 9.69855 | -84.42371 | 11967 ft | 387 kts | 310° |
| 2026-05-04 18:20 | 9.71851 | -84.44139 | 11232 ft | 376 kts | 331° |
| 2026-05-04 18:21 | 9.74220 | -84.45074 | 10538 ft | 365 kts | 351° |
| 2026-05-04 18:21 | 9.76709 | -84.45116 | 9852 ft | 355 kts | 12° |
| 2026-05-04 18:21 | 9.79026 | -84.44322 | 9428 ft | 338 kts | 28° |
| 2026-05-04 18:21 | 9.80981 | -84.43162 | 9210 ft | 319 kts | 36° |
| 2026-05-04 18:22 | 9.82701 | -84.41827 | 9015 ft | 301 kts | 41° |
| 2026-05-04 18:22 | 9.84270 | -84.40536 | 8996 ft | 280 kts | 39° |
| 2026-05-04 18:22 | 9.85784 | -84.39374 | 8988 ft | 263 kts | 38° |
| 2026-05-04 18:22 | 9.87166 | -84.38274 | 8989 ft | 247 kts | 41° |
| 2026-05-04 18:23 | 9.88404 | -84.37151 | 9014 ft | 239 kts | 46° |
| 2026-05-04 18:23 | 9.89483 | -84.35828 | 9018 ft | 239 kts | 58° |
| 2026-05-04 18:23 | 9.90263 | -84.34353 | 9020 ft | 240 kts | 67° |
| 2026-05-04 18:23 | 9.90828 | -84.32767 | 9021 ft | 240 kts | 74° |
| 2026-05-04 18:24 | 9.91160 | -84.31091 | 9020 ft | 241 kts | 86° |
| 2026-05-04 18:24 | 9.91104 | -84.29416 | 8959 ft | 236 kts | 96° |
| 2026-05-04 18:24 | 9.90875 | -84.27788 | 8773 ft | 231 kts | 97° |
| 2026-05-04 18:24 | 9.90673 | -84.26183 | 8533 ft | 230 kts | 94° |
| 2026-05-04 18:25 | 9.90619 | -84.24519 | 8285 ft | 240 kts | 87° |
| 2026-05-04 18:25 | 9.90796 | -84.22850 | 7991 ft | 239 kts | 78° |
| 2026-05-04 18:25 | 9.91238 | -84.21218 | 7764 ft | 236 kts | 71° |
| 2026-05-04 18:25 | 9.91793 | -84.19673 | 7515 ft | 234 kts | 69° |
| 2026-05-04 18:26 | 9.92377 | -84.18121 | 7215 ft | 234 kts | 69° |
| 2026-05-04 18:26 | 9.92941 | -84.16601 | 7054 ft | 224 kts | 68° |
| 2026-05-04 18:26 | 9.93479 | -84.15145 | 6791 ft | 218 kts | 69° |
| 2026-05-04 18:26 | 9.93991 | -84.13734 | 6547 ft | 211 kts | 69° |
| 2026-05-04 18:27 | 9.94495 | -84.12370 | 6378 ft | 201 kts | 66° |
| 2026-05-04 18:27 | 9.95184 | -84.11177 | 6120 ft | 195 kts | 46° |
| 2026-05-04 18:27 | 9.96289 | -84.10458 | 5852 ft | 183 kts | 21° |
| 2026-05-04 18:27 | 9.97474 | -84.10127 | 5625 ft | 169 kts | 12° |
| 2026-05-04 18:28 | 9.98622 | -84.10064 | 5424 ft | 167 kts | 353° |
| 2026-05-04 18:28 | 9.99702 | -84.10453 | 5168 ft | 163 kts | 330° |
| 2026-05-04 18:28 | 10.00584 | -84.11150 | 4956 ft | 161 kts | 318° |
| 2026-05-04 18:28 | 10.01321 | -84.11999 | 4725 ft | 159 kts | 304° |
| 2026-05-04 18:29 | 10.01701 | -84.13047 | 4514 ft | 158 kts | 279° |
| 2026-05-04 18:29 | 10.01722 | -84.14153 | 4300 ft | 155 kts | 263° |
| 2026-05-04 18:29 | 10.01450 | -84.15194 | 4116 ft | 154 kts | 250° |
| 2026-05-04 18:29 | 10.01096 | -84.16236 | 3965 ft | 157 kts | 252° |
| 2026-05-04 18:30 | 10.00349 | -84.18321 | 3474 ft | 157 kts | 251° |
| 2026-05-04 18:30 | 9.99951 | -84.19364 | 3197 ft | 157 kts | 251° |
| 2026-05-04 18:30 | 9.99574 | -84.20383 | 3032 ft | 147 kts | 250° |
| 2026-05-04 18:31 | 9.99262 | -84.21222 | 2986 ft | 102 kts | 250° |
| 2026-05-04 18:31 | 9.99094 | -84.21685 | 2963 ft | 44 kts | 249° |
| 2026-05-04 18:31 | 9.98995 | -84.21948 | 2952 ft | 36 kts | 250° |
| 2026-05-04 18:31 | 9.98950 | -84.22147 | 2941 ft | 22 kts | 293° |
| 2026-05-04 18:32 | 9.99049 | -84.22160 | 2937 ft | 16 kts | 54° |
| 2026-05-04 18:32 | 9.99076 | -84.22060 | 2941 ft | 12 kts | 80° |
| 2026-05-04 18:32 | 9.99089 | -84.21986 | 2944 ft | 10 kts | 80° |
| 2026-05-04 18:32 | 9.99108 | -84.21897 | 2949 ft | 14 kts | 73° |
| 2026-05-04 18:33 | 9.99149 | -84.21787 | 2955 ft | 18 kts | 69° |
| 2026-05-04 18:33 | 9.99202 | -84.21646 | 2962 ft | 23 kts | 69° |
| 2026-05-04 18:33 | 9.99264 | -84.21478 | 2973 ft | 26 kts | 69° |
| 2026-05-04 18:33 | 9.99326 | -84.21315 | 2982 ft | 22 kts | 69° |
| 2026-05-04 18:34 | 9.99375 | -84.21188 | 2989 ft | 16 kts | 69° |
| 2026-05-04 18:34 | 9.99409 | -84.21093 | 2993 ft | 12 kts | 69° |
| 2026-05-04 18:34 | 9.99433 | -84.21030 | 2997 ft | 6 kts | 70° |
| 2026-05-04 18:34 | 9.99441 | -84.21008 | 2999 ft | 0 kts | 69° |